sensor_id;sensor_type;location;lat;lon;timestamp;P1;durP1;ratioP1;P2;durP2;ratioP2
60292;SDS011;52402;52.670;6.750;2023-09-18T00:01:39;7.07;;;6.68;;
60292;SDS011;52402;52.670;6.750;2023-09-18T00:04:05;7.43;;;6.93;;
60292;SDS011;52402;52.670;6.750;2023-09-18T00:06:32;6.00;;;5.60;;
60292;SDS011;52402;52.670;6.750;2023-09-18T00:08:58;7.55;;;7.05;;
60292;SDS011;52402;52.670;6.750;2023-09-18T00:11:23;6.65;;;6.25;;
60292;SDS011;52402;52.670;6.750;2023-09-18T00:13:49;9.95;;;9.43;;
60292;SDS011;52402;52.670;6.750;2023-09-18T00:16:15;8.48;;;7.97;;
60292;SDS011;52402;52.670;6.750;2023-09-18T00:18:41;9.20;;;8.70;;
60292;SDS011;52402;52.670;6.750;2023-09-18T00:21:10;9.82;;;9.32;;
60292;SDS011;52402;52.670;6.750;2023-09-18T00:23:37;8.38;;;7.88;;
60292;SDS011;52402;52.670;6.750;2023-09-18T00:26:03;7.57;;;7.07;;
60292;SDS011;52402;52.670;6.750;2023-09-18T00:28:29;9.10;;;8.60;;
60292;SDS011;52402;52.670;6.750;2023-09-18T00:30:55;9.43;;;8.93;;
60292;SDS011;52402;52.670;6.750;2023-09-18T00:33:20;9.32;;;8.82;;
60292;SDS011;52402;52.670;6.750;2023-09-18T00:35:51;8.35;;;7.85;;
60292;SDS011;52402;52.670;6.750;2023-09-18T00:38:17;8.85;;;8.35;;
60292;SDS011;52402;52.670;6.750;2023-09-18T00:40:44;8.20;;;7.70;;
60292;SDS011;52402;52.670;6.750;2023-09-18T00:43:10;7.05;;;6.65;;
60292;SDS011;52402;52.670;6.750;2023-09-18T00:45:45;6.82;;;6.43;;
60292;SDS011;52402;52.670;6.750;2023-09-18T00:48:16;6.88;;;6.47;;
60292;SDS011;52402;52.670;6.750;2023-09-18T00:50:45;8.20;;;7.70;;
60292;SDS011;52402;52.670;6.750;2023-09-18T00:53:23;6.93;;;6.53;;
60292;SDS011;52402;52.670;6.750;2023-09-18T00:55:52;7.75;;;7.25;;
60292;SDS011;52402;52.670;6.750;2023-09-18T00:58:19;7.05;;;6.65;;
60292;SDS011;52402;52.670;6.750;2023-09-18T01:00:45;6.93;;;6.53;;
60292;SDS011;52402;52.670;6.750;2023-09-18T01:03:11;6.80;;;6.40;;
60292;SDS011;52402;52.670;6.750;2023-09-18T01:05:37;7.10;;;6.70;;
60292;SDS011;52402;52.670;6.750;2023-09-18T01:08:02;6.93;;;6.53;;
60292;SDS011;52402;52.670;6.750;2023-09-18T01:10:31;6.47;;;6.07;;
60292;SDS011;52402;52.670;6.750;2023-09-18T01:13:04;6.30;;;5.90;;
60292;SDS011;52402;52.670;6.750;2023-09-18T01:15:40;6.47;;;6.07;;
60292;SDS011;52402;52.670;6.750;2023-09-18T01:18:12;7.25;;;6.85;;
60292;SDS011;52402;52.670;6.750;2023-09-18T01:20:38;6.72;;;6.32;;
60292;SDS011;52402;52.670;6.750;2023-09-18T01:23:04;6.63;;;6.22;;
60292;SDS011;52402;52.670;6.750;2023-09-18T01:25:30;6.20;;;5.80;;
60292;SDS011;52402;52.670;6.750;2023-09-18T01:27:58;6.20;;;5.80;;
60292;SDS011;52402;52.670;6.750;2023-09-18T01:30:24;6.30;;;5.90;;
60292;SDS011;52402;52.670;6.750;2023-09-18T01:32:49;6.57;;;6.18;;
60292;SDS011;52402;52.670;6.750;2023-09-18T01:35:16;7.07;;;6.68;;
60292;SDS011;52402;52.670;6.750;2023-09-18T01:37:42;6.78;;;6.38;;
60292;SDS011;52402;52.670;6.750;2023-09-18T01:40:09;8.00;;;7.50;;
60292;SDS011;52402;52.670;6.750;2023-09-18T01:42:36;7.60;;;7.10;;
60292;SDS011;52402;52.670;6.750;2023-09-18T01:45:02;7.65;;;7.15;;
60292;SDS011;52402;52.670;6.750;2023-09-18T01:47:30;7.43;;;6.97;;
60292;SDS011;52402;52.670;6.750;2023-09-18T01:49:55;8.15;;;7.65;;
60292;SDS011;52402;52.670;6.750;2023-09-18T01:52:21;8.45;;;7.95;;
60292;SDS011;52402;52.670;6.750;2023-09-18T01:54:47;8.75;;;8.25;;
60292;SDS011;52402;52.670;6.750;2023-09-18T01:57:13;8.23;;;7.72;;
60292;SDS011;52402;52.670;6.750;2023-09-18T01:59:39;7.68;;;7.18;;
60292;SDS011;52402;52.670;6.750;2023-09-18T02:02:06;8.27;;;7.78;;
60292;SDS011;52402;52.670;6.750;2023-09-18T02:04:34;9.35;;;8.85;;
60292;SDS011;52402;52.670;6.750;2023-09-18T02:07:02;10.10;;;9.55;;
60292;SDS011;52402;52.670;6.750;2023-09-18T02:09:27;9.98;;;9.45;;
60292;SDS011;52402;52.670;6.750;2023-09-18T02:11:54;8.52;;;8.02;;
60292;SDS011;52402;52.670;6.750;2023-09-18T02:14:20;7.90;;;7.40;;
60292;SDS011;52402;52.670;6.750;2023-09-18T02:16:45;8.23;;;7.72;;
60292;SDS011;52402;52.670;6.750;2023-09-18T02:19:12;10.35;;;9.75;;
60292;SDS011;52402;52.670;6.750;2023-09-18T02:21:39;7.82;;;7.32;;
60292;SDS011;52402;52.670;6.750;2023-09-18T02:24:05;7.88;;;7.38;;
60292;SDS011;52402;52.670;6.750;2023-09-18T02:26:32;8.25;;;7.75;;
60292;SDS011;52402;52.670;6.750;2023-09-18T02:28:59;8.63;;;8.13;;
60292;SDS011;52402;52.670;6.750;2023-09-18T02:31:27;7.97;;;7.47;;
60292;SDS011;52402;52.670;6.750;2023-09-18T02:33:53;9.27;;;8.77;;
60292;SDS011;52402;52.670;6.750;2023-09-18T02:36:19;9.45;;;8.95;;
60292;SDS011;52402;52.670;6.750;2023-09-18T02:38:45;7.93;;;7.43;;
60292;SDS011;52402;52.670;6.750;2023-09-18T02:41:10;8.60;;;8.10;;
60292;SDS011;52402;52.670;6.750;2023-09-18T02:43:36;8.85;;;8.35;;
60292;SDS011;52402;52.670;6.750;2023-09-18T02:46:05;8.75;;;8.25;;
60292;SDS011;52402;52.670;6.750;2023-09-18T02:48:31;9.30;;;8.80;;
60292;SDS011;52402;52.670;6.750;2023-09-18T02:51:00;9.10;;;8.60;;
60292;SDS011;52402;52.670;6.750;2023-09-18T02:55:53;11.55;;;10.95;;
60292;SDS011;52402;52.670;6.750;2023-09-18T02:58:20;11.15;;;10.55;;
60292;SDS011;52402;52.670;6.750;2023-09-18T03:00:47;9.40;;;8.90;;
60292;SDS011;52402;52.670;6.750;2023-09-18T03:03:15;9.38;;;8.88;;
60292;SDS011;52402;52.670;6.750;2023-09-18T03:05:41;9.70;;;9.20;;
60292;SDS011;52402;52.670;6.750;2023-09-18T03:08:08;9.90;;;9.40;;
60292;SDS011;52402;52.670;6.750;2023-09-18T03:10:36;9.25;;;8.75;;
60292;SDS011;52402;52.670;6.750;2023-09-18T03:13:04;10.85;;;10.25;;
60292;SDS011;52402;52.670;6.750;2023-09-18T03:15:31;9.45;;;8.95;;
60292;SDS011;52402;52.670;6.750;2023-09-18T03:17:57;10.07;;;9.50;;
60292;SDS011;52402;52.670;6.750;2023-09-18T03:20:24;11.95;;;11.35;;
60292;SDS011;52402;52.670;6.750;2023-09-18T03:22:50;9.40;;;8.90;;
60292;SDS011;52402;52.670;6.750;2023-09-18T03:25:17;11.05;;;10.45;;
60292;SDS011;52402;52.670;6.750;2023-09-18T03:27:43;11.30;;;10.70;;
60292;SDS011;52402;52.670;6.750;2023-09-18T03:30:08;10.88;;;10.27;;
60292;SDS011;52402;52.670;6.750;2023-09-18T03:32:39;10.23;;;9.63;;
60292;SDS011;52402;52.670;6.750;2023-09-18T03:35:05;10.80;;;10.20;;
60292;SDS011;52402;52.670;6.750;2023-09-18T03:37:31;12.10;;;11.50;;
60292;SDS011;52402;52.670;6.750;2023-09-18T03:39:56;12.20;;;11.60;;
60292;SDS011;52402;52.670;6.750;2023-09-18T03:42:22;14.40;;;13.70;;
60292;SDS011;52402;52.670;6.750;2023-09-18T03:44:48;11.95;;;11.35;;
60292;SDS011;52402;52.670;6.750;2023-09-18T03:47:13;12.35;;;11.75;;
60292;SDS011;52402;52.670;6.750;2023-09-18T03:49:39;12.50;;;11.90;;
60292;SDS011;52402;52.670;6.750;2023-09-18T03:52:05;12.70;;;12.05;;
60292;SDS011;52402;52.670;6.750;2023-09-18T03:54:31;12.93;;;12.23;;
60292;SDS011;52402;52.670;6.750;2023-09-18T03:56:57;12.90;;;12.20;;
60292;SDS011;52402;52.670;6.750;2023-09-18T03:59:24;14.40;;;13.70;;
60292;SDS011;52402;52.670;6.750;2023-09-18T04:01:49;12.57;;;11.98;;
60292;SDS011;52402;52.670;6.750;2023-09-18T04:04:15;11.63;;;11.02;;
60292;SDS011;52402;52.670;6.750;2023-09-18T04:06:44;11.85;;;11.25;;
60292;SDS011;52402;52.670;6.750;2023-09-18T04:09:11;11.25;;;10.65;;
60292;SDS011;52402;52.670;6.750;2023-09-18T04:11:37;11.60;;;11.00;;
60292;SDS011;52402;52.670;6.750;2023-09-18T04:14:03;12.85;;;12.18;;
60292;SDS011;52402;52.670;6.750;2023-09-18T04:16:28;10.60;;;10.00;;
60292;SDS011;52402;52.670;6.750;2023-09-18T04:19:00;11.43;;;10.82;;
60292;SDS011;52402;52.670;6.750;2023-09-18T04:21:26;11.73;;;11.13;;
60292;SDS011;52402;52.670;6.750;2023-09-18T04:23:54;14.05;;;13.35;;
60292;SDS011;52402;52.670;6.750;2023-09-18T04:26:24;11.07;;;10.48;;
60292;SDS011;52402;52.670;6.750;2023-09-18T04:28:54;11.13;;;10.52;;
60292;SDS011;52402;52.670;6.750;2023-09-18T04:31:23;12.70;;;12.05;;
60292;SDS011;52402;52.670;6.750;2023-09-18T04:33:48;12.07;;;11.48;;
60292;SDS011;52402;52.670;6.750;2023-09-18T04:36:14;14.60;;;13.90;;
60292;SDS011;52402;52.670;6.750;2023-09-18T04:38:41;12.73;;;12.07;;
60292;SDS011;52402;52.670;6.750;2023-09-18T04:41:07;13.65;;;12.95;;
60292;SDS011;52402;52.670;6.750;2023-09-18T04:43:33;14.95;;;14.25;;
60292;SDS011;52402;52.670;6.750;2023-09-18T04:46:00;12.55;;;11.93;;
60292;SDS011;52402;52.670;6.750;2023-09-18T04:48:29;13.30;;;12.60;;
60292;SDS011;52402;52.670;6.750;2023-09-18T04:50:55;12.35;;;11.75;;
60292;SDS011;52402;52.670;6.750;2023-09-18T04:53:21;13.40;;;12.70;;
60292;SDS011;52402;52.670;6.750;2023-09-18T04:55:48;12.82;;;12.15;;
60292;SDS011;52402;52.670;6.750;2023-09-18T04:58:15;12.95;;;12.25;;
60292;SDS011;52402;52.670;6.750;2023-09-18T05:00:41;14.45;;;13.75;;
60292;SDS011;52402;52.670;6.750;2023-09-18T05:03:10;13.30;;;12.60;;
60292;SDS011;52402;52.670;6.750;2023-09-18T05:05:36;15.98;;;15.18;;
60292;SDS011;52402;52.670;6.750;2023-09-18T05:08:02;15.85;;;15.05;;
60292;SDS011;52402;52.670;6.750;2023-09-18T05:10:33;16.00;;;15.20;;
60292;SDS011;52402;52.670;6.750;2023-09-18T05:12:59;16.45;;;15.65;;
60292;SDS011;52402;52.670;6.750;2023-09-18T05:15:25;16.98;;;16.17;;
60292;SDS011;52402;52.670;6.750;2023-09-18T05:17:51;16.17;;;15.38;;
60292;SDS011;52402;52.670;6.750;2023-09-18T05:20:23;14.43;;;13.73;;
60292;SDS011;52402;52.670;6.750;2023-09-18T05:22:50;14.77;;;14.07;;
60292;SDS011;52402;52.670;6.750;2023-09-18T05:25:23;17.42;;;16.63;;
60292;SDS011;52402;52.670;6.750;2023-09-18T05:27:59;16.08;;;15.27;;
60292;SDS011;52402;52.670;6.750;2023-09-18T05:30:29;16.50;;;15.70;;
60292;SDS011;52402;52.670;6.750;2023-09-18T05:32:58;16.38;;;15.57;;
60292;SDS011;52402;52.670;6.750;2023-09-18T05:35:51;17.60;;;16.80;;
60292;SDS011;52402;52.670;6.750;2023-09-18T05:38:16;17.52;;;16.73;;
60292;SDS011;52402;52.670;6.750;2023-09-18T05:40:44;15.75;;;14.95;;
60292;SDS011;52402;52.670;6.750;2023-09-18T05:43:10;15.55;;;14.75;;
60292;SDS011;52402;52.670;6.750;2023-09-18T05:45:37;14.73;;;14.02;;
60292;SDS011;52402;52.670;6.750;2023-09-18T05:48:03;14.52;;;13.82;;
60292;SDS011;52402;52.670;6.750;2023-09-18T05:50:29;16.98;;;16.17;;
60292;SDS011;52402;52.670;6.750;2023-09-18T05:52:56;15.57;;;14.80;;
60292;SDS011;52402;52.670;6.750;2023-09-18T05:55:25;13.23;;;12.52;;
60292;SDS011;52402;52.670;6.750;2023-09-18T05:57:51;13.15;;;12.45;;
60292;SDS011;52402;52.670;6.750;2023-09-18T06:00:17;14.85;;;14.15;;
60292;SDS011;52402;52.670;6.750;2023-09-18T06:02:43;13.75;;;13.05;;
60292;SDS011;52402;52.670;6.750;2023-09-18T06:05:10;14.30;;;13.60;;
60292;SDS011;52402;52.670;6.750;2023-09-18T06:07:36;13.52;;;12.82;;
60292;SDS011;52402;52.670;6.750;2023-09-18T06:10:02;13.27;;;12.57;;
60292;SDS011;52402;52.670;6.750;2023-09-18T06:12:28;15.43;;;14.68;;
60292;SDS011;52402;52.670;6.750;2023-09-18T06:14:55;14.50;;;13.80;;
60292;SDS011;52402;52.670;6.750;2023-09-18T06:17:20;13.50;;;12.80;;
60292;SDS011;52402;52.670;6.750;2023-09-18T06:19:46;16.48;;;15.68;;
60292;SDS011;52402;52.670;6.750;2023-09-18T06:22:12;15.52;;;14.77;;
60292;SDS011;52402;52.670;6.750;2023-09-18T06:24:38;18.10;;;17.27;;
60292;SDS011;52402;52.670;6.750;2023-09-18T06:27:04;17.58;;;16.77;;
60292;SDS011;52402;52.670;6.750;2023-09-18T06:29:30;17.02;;;16.23;;
60292;SDS011;52402;52.670;6.750;2023-09-18T06:31:59;16.35;;;15.55;;
60292;SDS011;52402;52.670;6.750;2023-09-18T06:34:26;16.23;;;15.43;;
60292;SDS011;52402;52.670;6.750;2023-09-18T06:36:53;17.60;;;16.80;;
60292;SDS011;52402;52.670;6.750;2023-09-18T06:39:18;16.88;;;16.08;;
60292;SDS011;52402;52.670;6.750;2023-09-18T06:41:45;19.88;;;18.98;;
60292;SDS011;52402;52.670;6.750;2023-09-18T06:44:11;20.80;;;19.90;;
60292;SDS011;52402;52.670;6.750;2023-09-18T06:46:36;22.48;;;21.48;;
60292;SDS011;52402;52.670;6.750;2023-09-18T06:49:02;22.00;;;21.00;;
60292;SDS011;52402;52.670;6.750;2023-09-18T06:51:28;26.50;;;25.33;;
60292;SDS011;52402;52.670;6.750;2023-09-18T06:53:54;22.45;;;21.45;;
60292;SDS011;52402;52.670;6.750;2023-09-18T06:56:22;21.35;;;20.35;;
60292;SDS011;52402;52.670;6.750;2023-09-18T06:58:57;23.63;;;22.58;;
60292;SDS011;52402;52.670;6.750;2023-09-18T07:01:23;21.25;;;20.25;;
60292;SDS011;52402;52.670;6.750;2023-09-18T07:03:49;20.77;;;19.88;;
60292;SDS011;52402;52.670;6.750;2023-09-18T07:06:15;22.33;;;21.33;;
60292;SDS011;52402;52.670;6.750;2023-09-18T07:08:44;21.95;;;20.95;;
60292;SDS011;52402;52.670;6.750;2023-09-18T07:11:10;21.05;;;20.05;;
60292;SDS011;52402;52.670;6.750;2023-09-18T07:13:37;21.15;;;20.15;;
60292;SDS011;52402;52.670;6.750;2023-09-18T07:16:05;22.58;;;21.58;;
60292;SDS011;52402;52.670;6.750;2023-09-18T07:18:31;22.10;;;21.10;;
60292;SDS011;52402;52.670;6.750;2023-09-18T07:20:58;24.25;;;23.15;;
60292;SDS011;52402;52.670;6.750;2023-09-18T07:23:23;24.58;;;23.48;;
60292;SDS011;52402;52.670;6.750;2023-09-18T07:25:49;23.08;;;22.08;;
60292;SDS011;52402;52.670;6.750;2023-09-18T07:28:14;22.25;;;21.25;;
60292;SDS011;52402;52.670;6.750;2023-09-18T07:30:44;23.95;;;22.85;;
60292;SDS011;52402;52.670;6.750;2023-09-18T07:33:11;24.17;;;23.08;;
60292;SDS011;52402;52.670;6.750;2023-09-18T07:35:38;22.58;;;21.58;;
60292;SDS011;52402;52.670;6.750;2023-09-18T07:38:04;22.25;;;21.25;;
60292;SDS011;52402;52.670;6.750;2023-09-18T07:40:29;22.70;;;21.70;;
60292;SDS011;52402;52.670;6.750;2023-09-18T07:42:55;23.73;;;22.65;;
60292;SDS011;52402;52.670;6.750;2023-09-18T07:45:22;22.98;;;21.98;;
60292;SDS011;52402;52.670;6.750;2023-09-18T07:47:48;23.65;;;22.60;;
60292;SDS011;52402;52.670;6.750;2023-09-18T07:50:14;24.35;;;23.25;;
60292;SDS011;52402;52.670;6.750;2023-09-18T07:52:39;23.17;;;22.17;;
60292;SDS011;52402;52.670;6.750;2023-09-18T07:55:05;21.45;;;20.45;;
60292;SDS011;52402;52.670;6.750;2023-09-18T07:57:31;25.60;;;24.50;;
60292;SDS011;52402;52.670;6.750;2023-09-18T07:59:59;24.50;;;23.40;;
60292;SDS011;52402;52.670;6.750;2023-09-18T08:02:31;25.70;;;24.60;;
60292;SDS011;52402;52.670;6.750;2023-09-18T08:04:57;26.75;;;25.55;;
60292;SDS011;52402;52.670;6.750;2023-09-18T08:07:23;27.10;;;25.90;;
60292;SDS011;52402;52.670;6.750;2023-09-18T08:09:48;27.10;;;25.90;;
60292;SDS011;52402;52.670;6.750;2023-09-18T08:12:14;26.15;;;25.02;;
60292;SDS011;52402;52.670;6.750;2023-09-18T08:14:40;25.48;;;24.38;;
60292;SDS011;52402;52.670;6.750;2023-09-18T08:17:05;23.83;;;22.73;;
60292;SDS011;52402;52.670;6.750;2023-09-18T08:19:32;27.35;;;26.15;;
60292;SDS011;52402;52.670;6.750;2023-09-18T08:21:58;25.08;;;23.98;;
60292;SDS011;52402;52.670;6.750;2023-09-18T08:24:28;27.63;;;26.42;;
60292;SDS011;52402;52.670;6.750;2023-09-18T08:26:55;27.65;;;26.45;;
60292;SDS011;52402;52.670;6.750;2023-09-18T08:29:21;26.38;;;25.23;;
60292;SDS011;52402;52.670;6.750;2023-09-18T08:31:47;29.38;;;28.08;;
60292;SDS011;52402;52.670;6.750;2023-09-18T08:34:13;23.10;;;22.10;;
60292;SDS011;52402;52.670;6.750;2023-09-18T08:36:39;29.00;;;27.75;;
60292;SDS011;52402;52.670;6.750;2023-09-18T08:39:05;26.60;;;25.40;;
60292;SDS011;52402;52.670;6.750;2023-09-18T08:41:37;29.30;;;28.00;;
60292;SDS011;52402;52.670;6.750;2023-09-18T08:44:06;29.50;;;28.20;;
60292;SDS011;52402;52.670;6.750;2023-09-18T08:46:34;26.95;;;25.75;;
60292;SDS011;52402;52.670;6.750;2023-09-18T08:49:00;26.80;;;25.60;;
60292;SDS011;52402;52.670;6.750;2023-09-18T08:51:27;29.42;;;28.13;;
60292;SDS011;52402;52.670;6.750;2023-09-18T08:53:54;28.05;;;26.85;;
60292;SDS011;52402;52.670;6.750;2023-09-18T08:56:21;29.67;;;28.38;;
60292;SDS011;52402;52.670;6.750;2023-09-18T08:58:48;30.92;;;29.63;;
60292;SDS011;52402;52.670;6.750;2023-09-18T09:01:14;31.05;;;29.75;;
60292;SDS011;52402;52.670;6.750;2023-09-18T09:03:40;31.05;;;29.75;;
60292;SDS011;52402;52.670;6.750;2023-09-18T09:06:08;31.60;;;30.25;;
60292;SDS011;52402;52.670;6.750;2023-09-18T09:08:34;35.13;;;33.63;;
60292;SDS011;52402;52.670;6.750;2023-09-18T09:11:01;31.23;;;29.92;;
60292;SDS011;52402;52.670;6.750;2023-09-18T09:13:33;37.10;;;35.55;;
60292;SDS011;52402;52.670;6.750;2023-09-18T09:15:59;38.22;;;36.63;;
60292;SDS011;52402;52.670;6.750;2023-09-18T09:18:26;32.92;;;31.52;;
60292;SDS011;52402;52.670;6.750;2023-09-18T09:20:54;31.08;;;29.77;;
60292;SDS011;52402;52.670;6.750;2023-09-18T09:23:24;28.88;;;27.65;;
60292;SDS011;52402;52.670;6.750;2023-09-18T09:25:50;28.08;;;26.88;;
60292;SDS011;52402;52.670;6.750;2023-09-18T09:28:16;28.98;;;27.75;;
60292;SDS011;52402;52.670;6.750;2023-09-18T09:31:00;26.77;;;25.58;;
60292;SDS011;52402;52.670;6.750;2023-09-18T09:33:29;30.23;;;28.92;;
60292;SDS011;52402;52.670;6.750;2023-09-18T09:35:56;28.13;;;26.92;;
60292;SDS011;52402;52.670;6.750;2023-09-18T09:38:27;27.63;;;26.42;;
60292;SDS011;52402;52.670;6.750;2023-09-18T09:40:58;30.60;;;29.30;;
60292;SDS011;52402;52.670;6.750;2023-09-18T09:43:25;23.35;;;22.35;;
60292;SDS011;52402;52.670;6.750;2023-09-18T09:45:56;23.05;;;22.05;;
60292;SDS011;52402;52.670;6.750;2023-09-18T09:48:23;24.55;;;23.45;;
60292;SDS011;52402;52.670;6.750;2023-09-18T09:50:50;26.23;;;25.08;;
60292;SDS011;52402;52.670;6.750;2023-09-18T09:53:17;25.92;;;24.80;;
60292;SDS011;52402;52.670;6.750;2023-09-18T09:55:43;26.60;;;25.42;;
60292;SDS011;52402;52.670;6.750;2023-09-18T09:58:10;25.55;;;24.45;;
60292;SDS011;52402;52.670;6.750;2023-09-18T10:03:12;26.50;;;25.33;;
60292;SDS011;52402;52.670;6.750;2023-09-18T10:05:43;25.10;;;24.00;;
60292;SDS011;52402;52.670;6.750;2023-09-18T10:08:20;25.50;;;24.40;;
60292;SDS011;52402;52.670;6.750;2023-09-18T10:10:55;27.20;;;26.00;;
60292;SDS011;52402;52.670;6.750;2023-09-18T10:16:06;25.45;;;24.35;;
60292;SDS011;52402;52.670;6.750;2023-09-18T10:26:35;27.00;;;25.80;;
60292;SDS011;52402;52.670;6.750;2023-09-18T10:29:12;24.80;;;23.70;;
60292;SDS011;52402;52.670;6.750;2023-09-18T10:31:39;28.67;;;27.45;;
60292;SDS011;52402;52.670;6.750;2023-09-18T10:34:06;26.40;;;25.20;;
60292;SDS011;52402;52.670;6.750;2023-09-18T10:36:32;26.67;;;25.48;;
60292;SDS011;52402;52.670;6.750;2023-09-18T10:39:00;26.30;;;25.10;;
60292;SDS011;52402;52.670;6.750;2023-09-18T10:41:27;29.13;;;27.83;;
60292;SDS011;52402;52.670;6.750;2023-09-18T10:43:53;28.25;;;27.05;;
60292;SDS011;52402;52.670;6.750;2023-09-18T10:46:22;30.40;;;29.10;;
60292;SDS011;52402;52.670;6.750;2023-09-18T10:48:50;25.27;;;24.17;;
60292;SDS011;52402;52.670;6.750;2023-09-18T10:51:19;24.33;;;23.23;;
60292;SDS011;52402;52.670;6.750;2023-09-18T10:53:47;23.73;;;22.63;;
60292;SDS011;52402;52.670;6.750;2023-09-18T10:56:16;22.77;;;21.77;;
60292;SDS011;52402;52.670;6.750;2023-09-18T10:58:42;22.48;;;21.48;;
60292;SDS011;52402;52.670;6.750;2023-09-18T11:01:11;26.83;;;25.63;;
60292;SDS011;52402;52.670;6.750;2023-09-18T11:03:38;24.88;;;23.77;;
60292;SDS011;52402;52.670;6.750;2023-09-18T11:06:07;26.58;;;25.38;;
60292;SDS011;52402;52.670;6.750;2023-09-18T11:08:46;26.30;;;25.10;;
60292;SDS011;52402;52.670;6.750;2023-09-18T11:11:15;24.80;;;23.70;;
60292;SDS011;52402;52.670;6.750;2023-09-18T11:13:48;25.23;;;24.13;;
60292;SDS011;52402;52.670;6.750;2023-09-18T11:21:27;23.55;;;22.45;;
60292;SDS011;52402;52.670;6.750;2023-09-18T11:26:30;26.25;;;25.05;;
60292;SDS011;52402;52.670;6.750;2023-09-18T11:29:00;26.27;;;25.08;;
60292;SDS011;52402;52.670;6.750;2023-09-18T11:31:49;27.10;;;25.90;;
60292;SDS011;52402;52.670;6.750;2023-09-18T11:36:47;28.25;;;26.95;;
60292;SDS011;52402;52.670;6.750;2023-09-18T11:39:32;25.05;;;23.95;;
60292;SDS011;52402;52.670;6.750;2023-09-18T11:42:12;26.42;;;25.23;;
60292;SDS011;52402;52.670;6.750;2023-09-18T11:44:42;26.10;;;24.90;;
60292;SDS011;52402;52.670;6.750;2023-09-18T11:47:12;29.55;;;28.25;;
60292;SDS011;52402;52.670;6.750;2023-09-18T11:49:51;30.77;;;29.38;;
60292;SDS011;52402;52.670;6.750;2023-09-18T11:52:23;30.33;;;29.00;;
60292;SDS011;52402;52.670;6.750;2023-09-18T11:54:50;29.80;;;28.50;;
60292;SDS011;52402;52.670;6.750;2023-09-18T11:57:19;33.33;;;31.83;;
60292;SDS011;52402;52.670;6.750;2023-09-18T11:59:46;29.80;;;28.50;;
60292;SDS011;52402;52.670;6.750;2023-09-18T12:02:12;29.15;;;27.85;;
60292;SDS011;52402;52.670;6.750;2023-09-18T12:04:46;30.17;;;28.85;;
60292;SDS011;52402;52.670;6.750;2023-09-18T12:07:13;29.05;;;27.75;;
60292;SDS011;52402;52.670;6.750;2023-09-18T12:09:39;29.52;;;28.23;;
60292;SDS011;52402;52.670;6.750;2023-09-18T12:12:05;29.35;;;28.05;;
60292;SDS011;52402;52.670;6.750;2023-09-18T12:14:32;28.90;;;27.60;;
60292;SDS011;52402;52.670;6.750;2023-09-18T12:17:02;31.33;;;29.92;;
60292;SDS011;52402;52.670;6.750;2023-09-18T12:19:29;31.15;;;29.75;;
60292;SDS011;52402;52.670;6.750;2023-09-18T12:21:55;33.15;;;31.65;;
60292;SDS011;52402;52.670;6.750;2023-09-18T12:24:22;30.90;;;29.50;;
60292;SDS011;52402;52.670;6.750;2023-09-18T12:26:51;32.88;;;31.38;;
60292;SDS011;52402;52.670;6.750;2023-09-18T12:29:17;39.03;;;37.33;;
60292;SDS011;52402;52.670;6.750;2023-09-18T12:31:44;37.47;;;35.78;;
60292;SDS011;52402;52.670;6.750;2023-09-18T12:34:28;35.67;;;34.08;;
60292;SDS011;52402;52.670;6.750;2023-09-18T12:36:54;34.00;;;32.50;;
60292;SDS011;52402;52.670;6.750;2023-09-18T12:39:20;38.20;;;36.40;;
60292;SDS011;52402;52.670;6.750;2023-09-18T12:41:46;34.63;;;33.13;;
60292;SDS011;52402;52.670;6.750;2023-09-18T12:44:12;32.90;;;31.40;;
60292;SDS011;52402;52.670;6.750;2023-09-18T12:46:42;34.10;;;32.58;;
60292;SDS011;52402;52.670;6.750;2023-09-18T12:49:22;32.88;;;31.38;;
60292;SDS011;52402;52.670;6.750;2023-09-18T12:51:57;35.03;;;33.45;;
60292;SDS011;52402;52.670;6.750;2023-09-18T12:57:05;35.15;;;33.55;;
60292;SDS011;52402;52.670;6.750;2023-09-18T12:59:32;36.97;;;35.28;;
60292;SDS011;52402;52.670;6.750;2023-09-18T13:02:00;37.35;;;35.65;;
60292;SDS011;52402;52.670;6.750;2023-09-18T13:04:29;37.73;;;36.03;;
60292;SDS011;52402;52.670;6.750;2023-09-18T13:09:34;37.28;;;35.60;;
60292;SDS011;52402;52.670;6.750;2023-09-18T13:12:08;38.25;;;36.45;;
60292;SDS011;52402;52.670;6.750;2023-09-18T13:17:23;35.45;;;33.85;;
60292;SDS011;52402;52.670;6.750;2023-09-18T13:19:49;36.80;;;35.10;;
60292;SDS011;52402;52.670;6.750;2023-09-18T13:22:24;37.72;;;36.03;;
60292;SDS011;52402;52.670;6.750;2023-09-18T13:24:57;36.03;;;34.33;;
60292;SDS011;52402;52.670;6.750;2023-09-18T13:27:23;37.67;;;35.88;;
60292;SDS011;52402;52.670;6.750;2023-09-18T13:29:49;40.05;;;38.05;;
60292;SDS011;52402;52.670;6.750;2023-09-18T13:32:16;42.03;;;40.03;;
60292;SDS011;52402;52.670;6.750;2023-09-18T13:34:42;40.17;;;38.28;;
60292;SDS011;52402;52.670;6.750;2023-09-18T13:37:07;39.65;;;37.75;;
60292;SDS011;52402;52.670;6.750;2023-09-18T13:39:33;38.05;;;36.25;;
60292;SDS011;52402;52.670;6.750;2023-09-18T13:41:58;38.42;;;36.60;;
60292;SDS011;52402;52.670;6.750;2023-09-18T13:44:24;39.35;;;37.45;;
60292;SDS011;52402;52.670;6.750;2023-09-18T13:46:50;34.85;;;33.15;;
60292;SDS011;52402;52.670;6.750;2023-09-18T13:49:15;35.45;;;33.75;;
60292;SDS011;52402;52.670;6.750;2023-09-18T13:51:41;34.42;;;32.72;;
60292;SDS011;52402;52.670;6.750;2023-09-18T13:54:06;33.15;;;31.55;;
60292;SDS011;52402;52.670;6.750;2023-09-18T13:56:32;36.47;;;34.67;;
60292;SDS011;52402;52.670;6.750;2023-09-18T13:58:58;35.22;;;33.53;;
60292;SDS011;52402;52.670;6.750;2023-09-18T14:01:24;36.00;;;34.28;;
60292;SDS011;52402;52.670;6.750;2023-09-18T14:03:52;34.83;;;33.13;;
60292;SDS011;52402;52.670;6.750;2023-09-18T14:06:18;35.78;;;34.05;;
60292;SDS011;52402;52.670;6.750;2023-09-18T14:08:44;35.38;;;33.67;;
60292;SDS011;52402;52.670;6.750;2023-09-18T14:11:09;34.83;;;33.13;;
60292;SDS011;52402;52.670;6.750;2023-09-18T14:13:35;34.65;;;32.95;;
60292;SDS011;52402;52.670;6.750;2023-09-18T14:16:01;36.20;;;34.40;;
60292;SDS011;52402;52.670;6.750;2023-09-18T14:18:28;34.15;;;32.45;;
60292;SDS011;52402;52.670;6.750;2023-09-18T14:20:54;34.50;;;32.80;;
60292;SDS011;52402;52.670;6.750;2023-09-18T14:23:20;35.05;;;33.35;;
60292;SDS011;52402;52.670;6.750;2023-09-18T14:25:46;34.47;;;32.78;;
60292;SDS011;52402;52.670;6.750;2023-09-18T14:28:11;34.70;;;33.00;;
60292;SDS011;52402;52.670;6.750;2023-09-18T14:30:38;34.50;;;32.80;;
60292;SDS011;52402;52.670;6.750;2023-09-18T14:33:04;34.60;;;32.90;;
60292;SDS011;52402;52.670;6.750;2023-09-18T14:35:30;35.45;;;33.75;;
60292;SDS011;52402;52.670;6.750;2023-09-18T14:37:55;37.05;;;35.25;;
60292;SDS011;52402;52.670;6.750;2023-09-18T14:40:21;37.38;;;35.58;;
60292;SDS011;52402;52.670;6.750;2023-09-18T14:42:46;35.13;;;33.47;;
60292;SDS011;52402;52.670;6.750;2023-09-18T14:45:12;33.90;;;32.30;;
60292;SDS011;52402;52.670;6.750;2023-09-18T14:47:38;38.20;;;36.40;;
60292;SDS011;52402;52.670;6.750;2023-09-18T14:50:04;34.08;;;32.47;;
60292;SDS011;52402;52.670;6.750;2023-09-18T14:52:31;33.67;;;32.08;;
60292;SDS011;52402;52.670;6.750;2023-09-18T14:54:57;32.58;;;30.98;;
60292;SDS011;52402;52.670;6.750;2023-09-18T14:57:26;34.40;;;32.75;;
60292;SDS011;52402;52.670;6.750;2023-09-18T14:59:54;34.90;;;33.20;;
60292;SDS011;52402;52.670;6.750;2023-09-18T15:02:26;35.92;;;34.13;;